sensor_id;sensor_type;location;lat;lon;timestamp;P1;durP1;ratioP1;P2;durP2;ratioP2
51491;SDS011;37569;50.548;8.778;2023-07-31T00:04:07;5.1;;;2.3;;
51491;SDS011;37569;50.548;8.778;2023-07-31T00:09:08;5;;;2.4;;
51491;SDS011;37569;50.548;8.778;2023-07-31T00:14:08;4.8;;;2.2;;
51491;SDS011;37569;50.548;8.778;2023-07-31T00:19:09;4;;;2.1;;
51491;SDS011;37569;50.548;8.778;2023-07-31T00:24:10;4.3;;;2.2;;
51491;SDS011;37569;50.548;8.778;2023-07-31T00:29:11;4.7;;;2.1;;
51491;SDS011;37569;50.548;8.778;2023-07-31T00:34:12;5.2;;;2.2;;
51491;SDS011;37569;50.548;8.778;2023-07-31T00:39:12;5.6;;;2.4;;
51491;SDS011;37569;50.548;8.778;2023-07-31T00:44:13;4.4;;;2.4;;
51491;SDS011;37569;50.548;8.778;2023-07-31T00:49:14;5.9;;;2.4;;
51491;SDS011;37569;50.548;8.778;2023-07-31T00:54:15;5;;;2.3;;
51491;SDS011;37569;50.548;8.778;2023-07-31T00:59:15;4.3;;;2.6;;
51491;SDS011;37569;50.548;8.778;2023-07-31T01:04:16;5;;;2.5;;
51491;SDS011;37569;50.548;8.778;2023-07-31T01:09:20;5.3;;;2.5;;
51491;SDS011;37569;50.548;8.778;2023-07-31T01:14:18;5.2;;;2.2;;
51491;SDS011;37569;50.548;8.778;2023-07-31T01:19:20;5.7;;;2.7;;
51491;SDS011;37569;50.548;8.778;2023-07-31T01:24:20;6.1;;;2.3;;
51491;SDS011;37569;50.548;8.778;2023-07-31T01:29:22;4.7;;;2.5;;
51491;SDS011;37569;50.548;8.778;2023-07-31T01:34:21;5.3;;;2.4;;
51491;SDS011;37569;50.548;8.778;2023-07-31T01:39:22;4.9;;;2.4;;
51491;SDS011;37569;50.548;8.778;2023-07-31T01:44:22;5;;;2.1;;
51491;SDS011;37569;50.548;8.778;2023-07-31T01:49:23;4.5;;;2.6;;
51491;SDS011;37569;50.548;8.778;2023-07-31T01:54:24;4.5;;;2.5;;
51491;SDS011;37569;50.548;8.778;2023-07-31T01:59:25;6.6;;;2.5;;
51491;SDS011;37569;50.548;8.778;2023-07-31T02:04:25;7;;;2.7;;
51491;SDS011;37569;50.548;8.778;2023-07-31T02:09:26;6.6;;;2.7;;
51491;SDS011;37569;50.548;8.778;2023-07-31T02:14:27;5.5;;;2.7;;
51491;SDS011;37569;50.548;8.778;2023-07-31T02:19:28;3.5;;;2.5;;
51491;SDS011;37569;50.548;8.778;2023-07-31T02:24:28;4.2;;;2.5;;
51491;SDS011;37569;50.548;8.778;2023-07-31T02:29:29;4.6;;;2.8;;
51491;SDS011;37569;50.548;8.778;2023-07-31T02:34:30;5.8;;;2.5;;
51491;SDS011;37569;50.548;8.778;2023-07-31T02:39:31;4;;;2.5;;
51491;SDS011;37569;50.548;8.778;2023-07-31T02:44:32;7;;;2.5;;
51491;SDS011;37569;50.548;8.778;2023-07-31T02:49:32;5;;;2.9;;
51491;SDS011;37569;50.548;8.778;2023-07-31T02:54:33;5.4;;;2.9;;
51491;SDS011;37569;50.548;8.778;2023-07-31T02:59:34;5.1;;;2.7;;
51491;SDS011;37569;50.548;8.778;2023-07-31T03:04:35;4.7;;;2.7;;
51491;SDS011;37569;50.548;8.778;2023-07-31T03:09:35;3.9;;;2.6;;
51491;SDS011;37569;50.548;8.778;2023-07-31T03:14:36;4.7;;;2.5;;
51491;SDS011;37569;50.548;8.778;2023-07-31T03:19:37;5.6;;;2.9;;
51491;SDS011;37569;50.548;8.778;2023-07-31T03:24:38;6.5;;;2.8;;
51491;SDS011;37569;50.548;8.778;2023-07-31T03:29:39;5.3;;;2.9;;
51491;SDS011;37569;50.548;8.778;2023-07-31T03:34:39;4.4;;;2.8;;
51491;SDS011;37569;50.548;8.778;2023-07-31T03:39:40;4.6;;;2.7;;
51491;SDS011;37569;50.548;8.778;2023-07-31T03:44:41;5.8;;;2.9;;
51491;SDS011;37569;50.548;8.778;2023-07-31T03:49:42;5.1;;;2.8;;
51491;SDS011;37569;50.548;8.778;2023-07-31T03:54:42;5.1;;;3;;
51491;SDS011;37569;50.548;8.778;2023-07-31T03:59:43;5.3;;;3.1;;
51491;SDS011;37569;50.548;8.778;2023-07-31T04:04:44;4.7;;;2.9;;
51491;SDS011;37569;50.548;8.778;2023-07-31T04:09:45;5.1;;;2.9;;
51491;SDS011;37569;50.548;8.778;2023-07-31T04:14:46;5.8;;;3.2;;
51491;SDS011;37569;50.548;8.778;2023-07-31T04:19:47;5.9;;;3.3;;
51491;SDS011;37569;50.548;8.778;2023-07-31T04:24:47;5.6;;;3;;
51491;SDS011;37569;50.548;8.778;2023-07-31T04:29:48;3.9;;;3.1;;
51491;SDS011;37569;50.548;8.778;2023-07-31T04:34:49;4.1;;;2.7;;
51491;SDS011;37569;50.548;8.778;2023-07-31T04:39:50;7.7;;;3;;
51491;SDS011;37569;50.548;8.778;2023-07-31T04:44:51;8.3;;;3.2;;
51491;SDS011;37569;50.548;8.778;2023-07-31T04:49:51;4.8;;;2.9;;
51491;SDS011;37569;50.548;8.778;2023-07-31T04:54:52;4.3;;;2.9;;
51491;SDS011;37569;50.548;8.778;2023-07-31T04:59:53;5.7;;;2.9;;
51491;SDS011;37569;50.548;8.778;2023-07-31T05:04:54;5.9;;;3.1;;
51491;SDS011;37569;50.548;8.778;2023-07-31T05:09:55;4.9;;;2.8;;
51491;SDS011;37569;50.548;8.778;2023-07-31T05:14:56;5;;;2.6;;
51491;SDS011;37569;50.548;8.778;2023-07-31T05:19:57;4.4;;;2.6;;
51491;SDS011;37569;50.548;8.778;2023-07-31T05:24:57;3.9;;;2.8;;
51491;SDS011;37569;50.548;8.778;2023-07-31T05:29:58;5;;;2.8;;
51491;SDS011;37569;50.548;8.778;2023-07-31T05:34:59;3.5;;;2.4;;
51491;SDS011;37569;50.548;8.778;2023-07-31T05:40:00;5.8;;;2.9;;
51491;SDS011;37569;50.548;8.778;2023-07-31T05:45:00;4.3;;;2.3;;
51491;SDS011;37569;50.548;8.778;2023-07-31T05:50:01;5.6;;;2.8;;
51491;SDS011;37569;50.548;8.778;2023-07-31T05:55:02;5.3;;;2.5;;
51491;SDS011;37569;50.548;8.778;2023-07-31T06:00:03;5.8;;;2.9;;
51491;SDS011;37569;50.548;8.778;2023-07-31T06:05:04;4.3;;;2.9;;
51491;SDS011;37569;50.548;8.778;2023-07-31T06:10:05;5.4;;;2.9;;
51491;SDS011;37569;50.548;8.778;2023-07-31T06:15:06;4.3;;;2.6;;
51491;SDS011;37569;50.548;8.778;2023-07-31T06:20:06;5.8;;;2.8;;
51491;SDS011;37569;50.548;8.778;2023-07-31T06:25:07;5.5;;;2.8;;
51491;SDS011;37569;50.548;8.778;2023-07-31T06:30:08;5.1;;;2.7;;
51491;SDS011;37569;50.548;8.778;2023-07-31T06:35:09;5.2;;;2.8;;
51491;SDS011;37569;50.548;8.778;2023-07-31T06:40:10;3.9;;;2.6;;
51491;SDS011;37569;50.548;8.778;2023-07-31T06:45:10;4.4;;;2.7;;
51491;SDS011;37569;50.548;8.778;2023-07-31T06:50:11;5.9;;;3;;
51491;SDS011;37569;50.548;8.778;2023-07-31T06:55:16;5.2;;;3.1;;
51491;SDS011;37569;50.548;8.778;2023-07-31T07:00:13;5.4;;;3.1;;
51491;SDS011;37569;50.548;8.778;2023-07-31T07:05:14;5.4;;;2.9;;
51491;SDS011;37569;50.548;8.778;2023-07-31T07:10:14;7.7;;;3.2;;
51491;SDS011;37569;50.548;8.778;2023-07-31T07:15:15;4.4;;;2.9;;
51491;SDS011;37569;50.548;8.778;2023-07-31T07:20:16;6.6;;;3.1;;
51491;SDS011;37569;50.548;8.778;2023-07-31T07:25:17;5.7;;;3;;
51491;SDS011;37569;50.548;8.778;2023-07-31T07:30:18;6.1;;;3;;
51491;SDS011;37569;50.548;8.778;2023-07-31T07:35:18;6.7;;;3.3;;
51491;SDS011;37569;50.548;8.778;2023-07-31T07:40:19;6.6;;;3.3;;
51491;SDS011;37569;50.548;8.778;2023-07-31T07:45:20;7.3;;;3.4;;
51491;SDS011;37569;50.548;8.778;2023-07-31T07:50:21;8.3;;;3.4;;
51491;SDS011;37569;50.548;8.778;2023-07-31T07:55:22;8.6;;;3.8;;
51491;SDS011;37569;50.548;8.778;2023-07-31T08:00:23;6.3;;;3;;
51491;SDS011;37569;50.548;8.778;2023-07-31T08:05:23;7;;;3.4;;
51491;SDS011;37569;50.548;8.778;2023-07-31T08:10:24;7.5;;;3.4;;
51491;SDS011;37569;50.548;8.778;2023-07-31T08:15:25;6.7;;;3.4;;
51491;SDS011;37569;50.548;8.778;2023-07-31T08:20:26;6.7;;;3.4;;
51491;SDS011;37569;50.548;8.778;2023-07-31T08:25:26;6.7;;;3.3;;
51491;SDS011;37569;50.548;8.778;2023-07-31T08:30:27;8.2;;;3.5;;
51491;SDS011;37569;50.548;8.778;2023-07-31T08:35:28;7.5;;;3.5;;
51491;SDS011;37569;50.548;8.778;2023-07-31T08:40:29;6.7;;;3.2;;
51491;SDS011;37569;50.548;8.778;2023-07-31T08:45:30;7;;;3.6;;
51491;SDS011;37569;50.548;8.778;2023-07-31T08:50:31;6.4;;;3.3;;
51491;SDS011;37569;50.548;8.778;2023-07-31T08:55:32;7.4;;;3.5;;
51491;SDS011;37569;50.548;8.778;2023-07-31T09:00:33;5.9;;;3.3;;
51491;SDS011;37569;50.548;8.778;2023-07-31T09:05:33;5.1;;;3.1;;
51491;SDS011;37569;50.548;8.778;2023-07-31T09:10:34;6.3;;;3.4;;
51491;SDS011;37569;50.548;8.778;2023-07-31T09:15:35;6.1;;;3.3;;
51491;SDS011;37569;50.548;8.778;2023-07-31T09:20:36;6.3;;;3.4;;
51491;SDS011;37569;50.548;8.778;2023-07-31T09:25:37;6;;;3.3;;
51491;SDS011;37569;50.548;8.778;2023-07-31T09:30:46;6;;;3.4;;
51491;SDS011;37569;50.548;8.778;2023-07-31T09:35:39;7.7;;;3.5;;
51491;SDS011;37569;50.548;8.778;2023-07-31T09:40:40;6.7;;;3.3;;
51491;SDS011;37569;50.548;8.778;2023-07-31T09:45:41;7.9;;;3.8;;
51491;SDS011;37569;50.548;8.778;2023-07-31T09:50:42;10.2;;;4;;
51491;SDS011;37569;50.548;8.778;2023-07-31T09:55:43;7.7;;;3.5;;
51491;SDS011;37569;50.548;8.778;2023-07-31T10:00:43;6.2;;;3.5;;
51491;SDS011;37569;50.548;8.778;2023-07-31T10:05:45;6.2;;;3.8;;
51491;SDS011;37569;50.548;8.778;2023-07-31T10:10:45;7.7;;;3.8;;
51491;SDS011;37569;50.548;8.778;2023-07-31T10:15:46;6.5;;;3.6;;
51491;SDS011;37569;50.548;8.778;2023-07-31T10:20:47;7.2;;;3.6;;
51491;SDS011;37569;50.548;8.778;2023-07-31T10:25:47;7.3;;;4;;
51491;SDS011;37569;50.548;8.778;2023-07-31T10:30:48;6.9;;;3.8;;
51491;SDS011;37569;50.548;8.778;2023-07-31T10:35:49;6.5;;;3.4;;
51491;SDS011;37569;50.548;8.778;2023-07-31T10:40:50;7.5;;;3.9;;
51491;SDS011;37569;50.548;8.778;2023-07-31T10:45:51;8.3;;;3.7;;
51491;SDS011;37569;50.548;8.778;2023-07-31T10:50:52;6.4;;;3.7;;
51491;SDS011;37569;50.548;8.778;2023-07-31T10:55:53;6.4;;;3.8;;
51491;SDS011;37569;50.548;8.778;2023-07-31T11:00:55;6;;;3.9;;
51491;SDS011;37569;50.548;8.778;2023-07-31T11:06:00;7;;;3.7;;
51491;SDS011;37569;50.548;8.778;2023-07-31T11:11:04;8.2;;;4.1;;
51491;SDS011;37569;50.548;8.778;2023-07-31T11:15:56;7.1;;;3.9;;
51491;SDS011;37569;50.548;8.778;2023-07-31T11:20:57;6.9;;;3.8;;
51491;SDS011;37569;50.548;8.778;2023-07-31T11:25:59;6.5;;;3.8;;
51491;SDS011;37569;50.548;8.778;2023-07-31T11:30:59;7.6;;;3.7;;
51491;SDS011;37569;50.548;8.778;2023-07-31T11:36:00;8.1;;;4;;
51491;SDS011;37569;50.548;8.778;2023-07-31T11:41:01;6.5;;;3.6;;
51491;SDS011;37569;50.548;8.778;2023-07-31T11:46:02;4.7;;;3.2;;
51491;SDS011;37569;50.548;8.778;2023-07-31T11:51:03;6.9;;;3.4;;
51491;SDS011;37569;50.548;8.778;2023-07-31T11:56:04;6.1;;;3.4;;
51491;SDS011;37569;50.548;8.778;2023-07-31T12:01:05;6.1;;;3.3;;
51491;SDS011;37569;50.548;8.778;2023-07-31T12:06:06;5.3;;;3.5;;
51491;SDS011;37569;50.548;8.778;2023-07-31T12:11:07;6.2;;;3.3;;
51491;SDS011;37569;50.548;8.778;2023-07-31T12:16:07;5.9;;;3.4;;
51491;SDS011;37569;50.548;8.778;2023-07-31T12:21:08;7.4;;;3.5;;
51491;SDS011;37569;50.548;8.778;2023-07-31T12:26:10;5.3;;;3.4;;
51491;SDS011;37569;50.548;8.778;2023-07-31T12:31:11;5.7;;;3.4;;
51491;SDS011;37569;50.548;8.778;2023-07-31T12:36:12;5.2;;;3.2;;
51491;SDS011;37569;50.548;8.778;2023-07-31T12:41:13;5.9;;;3.5;;
51491;SDS011;37569;50.548;8.778;2023-07-31T12:46:13;5.8;;;3;;
51491;SDS011;37569;50.548;8.778;2023-07-31T12:51:14;7.9;;;3.4;;
51491;SDS011;37569;50.548;8.778;2023-07-31T12:56:15;5.3;;;3;;
51491;SDS011;37569;50.548;8.778;2023-07-31T13:01:16;5.7;;;3;;
51491;SDS011;37569;50.548;8.778;2023-07-31T13:06:17;5.3;;;2.8;;
51491;SDS011;37569;50.548;8.778;2023-07-31T13:11:18;5.7;;;3.3;;
51491;SDS011;37569;50.548;8.778;2023-07-31T13:16:19;5.8;;;3.1;;
51491;SDS011;37569;50.548;8.778;2023-07-31T13:21:20;6.4;;;3.2;;
51491;SDS011;37569;50.548;8.778;2023-07-31T13:26:21;6;;;3.1;;
51491;SDS011;37569;50.548;8.778;2023-07-31T13:31:22;5;;;3;;
51491;SDS011;37569;50.548;8.778;2023-07-31T13:36:23;5;;;3.1;;
51491;SDS011;37569;50.548;8.778;2023-07-31T13:41:25;3.4;;;2.7;;
51491;SDS011;37569;50.548;8.778;2023-07-31T13:46:26;4.4;;;2.5;;
51491;SDS011;37569;50.548;8.778;2023-07-31T13:51:27;4.8;;;2.7;;
51491;SDS011;37569;50.548;8.778;2023-07-31T13:56:28;3.7;;;2.4;;
51491;SDS011;37569;50.548;8.778;2023-07-31T14:01:29;3.6;;;2.7;;
51491;SDS011;37569;50.548;8.778;2023-07-31T14:06:30;5.1;;;2.5;;
51491;SDS011;37569;50.548;8.778;2023-07-31T14:11:31;3.4;;;2.4;;
51491;SDS011;37569;50.548;8.778;2023-07-31T14:16:32;4.1;;;2.7;;
51491;SDS011;37569;50.548;8.778;2023-07-31T14:21:33;3.4;;;2.8;;
51491;SDS011;37569;50.548;8.778;2023-07-31T14:26:34;4.3;;;2.8;;
51491;SDS011;37569;50.548;8.778;2023-07-31T14:31:35;4.4;;;3;;
51491;SDS011;37569;50.548;8.778;2023-07-31T14:36:36;5.1;;;3.4;;
51491;SDS011;37569;50.548;8.778;2023-07-31T14:41:37;3.8;;;3.2;;
51491;SDS011;37569;50.548;8.778;2023-07-31T14:46:38;4.7;;;3.1;;
51491;SDS011;37569;50.548;8.778;2023-07-31T14:51:39;5.2;;;3.3;;
51491;SDS011;37569;50.548;8.778;2023-07-31T14:56:40;3.8;;;3.4;;
51491;SDS011;37569;50.548;8.778;2023-07-31T15:01:41;3.9;;;3;;
51491;SDS011;37569;50.548;8.778;2023-07-31T15:06:42;4.9;;;3;;
51491;SDS011;37569;50.548;8.778;2023-07-31T15:11:43;4.6;;;3;;
51491;SDS011;37569;50.548;8.778;2023-07-31T15:16:45;5.9;;;2.7;;
51491;SDS011;37569;50.548;8.778;2023-07-31T15:21:45;3.3;;;2.7;;
51491;SDS011;37569;50.548;8.778;2023-07-31T15:26:46;4.7;;;2.6;;
51491;SDS011;37569;50.548;8.778;2023-07-31T15:31:48;4.2;;;2.4;;
51491;SDS011;37569;50.548;8.778;2023-07-31T15:36:48;2.9;;;2.3;;
51491;SDS011;37569;50.548;8.778;2023-07-31T15:41:49;2.7;;;2.2;;
51491;SDS011;37569;50.548;8.778;2023-07-31T15:46:50;3.7;;;2.3;;
51491;SDS011;37569;50.548;8.778;2023-07-31T15:51:51;4.1;;;2.3;;
51491;SDS011;37569;50.548;8.778;2023-07-31T15:56:52;3.9;;;1.9;;
51491;SDS011;37569;50.548;8.778;2023-07-31T16:01:53;4.3;;;2.2;;
51491;SDS011;37569;50.548;8.778;2023-07-31T16:06:54;3.2;;;2;;
51491;SDS011;37569;50.548;8.778;2023-07-31T16:11:55;3.2;;;2;;
51491;SDS011;37569;50.548;8.778;2023-07-31T16:16:56;2.6;;;1.8;;
51491;SDS011;37569;50.548;8.778;2023-07-31T16:21:57;3.6;;;2;;
51491;SDS011;37569;50.548;8.778;2023-07-31T16:26:58;3.3;;;1.9;;
51491;SDS011;37569;50.548;8.778;2023-07-31T16:31:59;3.4;;;2;;
51491;SDS011;37569;50.548;8.778;2023-07-31T16:37:00;3.1;;;2.1;;
51491;SDS011;37569;50.548;8.778;2023-07-31T16:42:01;3.2;;;1.8;;
51491;SDS011;37569;50.548;8.778;2023-07-31T16:47:02;3.4;;;2;;
51491;SDS011;37569;50.548;8.778;2023-07-31T16:52:03;2.6;;;2;;
51491;SDS011;37569;50.548;8.778;2023-07-31T16:57:04;3.9;;;2.2;;
51491;SDS011;37569;50.548;8.778;2023-07-31T17:02:05;2.9;;;2.4;;
51491;SDS011;37569;50.548;8.778;2023-07-31T17:07:06;2.9;;;2.4;;
51491;SDS011;37569;50.548;8.778;2023-07-31T17:12:07;3;;;2.3;;
51491;SDS011;37569;50.548;8.778;2023-07-31T17:17:08;2.5;;;2.3;;
51491;SDS011;37569;50.548;8.778;2023-07-31T17:22:09;4.1;;;2.4;;
51491;SDS011;37569;50.548;8.778;2023-07-31T17:27:10;4.4;;;2.3;;
51491;SDS011;37569;50.548;8.778;2023-07-31T17:32:10;3.8;;;2.4;;
51491;SDS011;37569;50.548;8.778;2023-07-31T17:37:11;3.7;;;2.6;;
51491;SDS011;37569;50.548;8.778;2023-07-31T17:42:12;3.6;;;2.4;;
51491;SDS011;37569;50.548;8.778;2023-07-31T17:47:13;4.7;;;2.5;;
51491;SDS011;37569;50.548;8.778;2023-07-31T17:52:14;3.4;;;2.4;;
51491;SDS011;37569;50.548;8.778;2023-07-31T17:57:15;4.7;;;2.6;;
51491;SDS011;37569;50.548;8.778;2023-07-31T18:02:16;3.4;;;2.5;;
51491;SDS011;37569;50.548;8.778;2023-07-31T18:07:17;4.5;;;2.4;;
51491;SDS011;37569;50.548;8.778;2023-07-31T18:12:18;4.5;;;2.5;;
51491;SDS011;37569;50.548;8.778;2023-07-31T18:17:19;4.4;;;2.5;;
51491;SDS011;37569;50.548;8.778;2023-07-31T18:22:19;4.6;;;2.7;;
51491;SDS011;37569;50.548;8.778;2023-07-31T18:27:20;4.1;;;2.6;;
51491;SDS011;37569;50.548;8.778;2023-07-31T18:32:21;4.4;;;2.6;;
51491;SDS011;37569;50.548;8.778;2023-07-31T18:37:22;4.8;;;2.5;;
51491;SDS011;37569;50.548;8.778;2023-07-31T18:42:23;4.4;;;2.8;;
51491;SDS011;37569;50.548;8.778;2023-07-31T18:47:24;4.5;;;3.2;;
51491;SDS011;37569;50.548;8.778;2023-07-31T18:52:25;4.9;;;3.1;;
51491;SDS011;37569;50.548;8.778;2023-07-31T18:57:26;5.3;;;3.4;;
51491;SDS011;37569;50.548;8.778;2023-07-31T19:02:26;6.7;;;3.6;;
51491;SDS011;37569;50.548;8.778;2023-07-31T19:07:27;6.5;;;3.7;;
51491;SDS011;37569;50.548;8.778;2023-07-31T19:12:28;4.8;;;3.5;;
51491;SDS011;37569;50.548;8.778;2023-07-31T19:17:29;5.4;;;3.6;;
51491;SDS011;37569;50.548;8.778;2023-07-31T19:22:29;7.6;;;3.8;;
51491;SDS011;37569;50.548;8.778;2023-07-31T19:27:30;8.3;;;3.7;;
51491;SDS011;37569;50.548;8.778;2023-07-31T19:32:31;7.7;;;4;;
51491;SDS011;37569;50.548;8.778;2023-07-31T19:37:32;8.4;;;3.7;;
51491;SDS011;37569;50.548;8.778;2023-07-31T19:42:33;5.4;;;3.7;;
51491;SDS011;37569;50.548;8.778;2023-07-31T19:47:33;7.2;;;4.3;;
51491;SDS011;37569;50.548;8.778;2023-07-31T19:52:34;6.9;;;4.1;;
51491;SDS011;37569;50.548;8.778;2023-07-31T19:57:35;8.4;;;4.2;;
51491;SDS011;37569;50.548;8.778;2023-07-31T20:02:36;6.9;;;4.2;;
51491;SDS011;37569;50.548;8.778;2023-07-31T20:07:36;7.5;;;4.2;;
51491;SDS011;37569;50.548;8.778;2023-07-31T20:12:37;8.5;;;4.2;;
51491;SDS011;37569;50.548;8.778;2023-07-31T20:17:38;7.1;;;4.5;;
51491;SDS011;37569;50.548;8.778;2023-07-31T20:22:39;8.2;;;4.7;;
51491;SDS011;37569;50.548;8.778;2023-07-31T20:27:39;7.3;;;4.5;;
51491;SDS011;37569;50.548;8.778;2023-07-31T20:32:40;7.1;;;4.7;;
51491;SDS011;37569;50.548;8.778;2023-07-31T20:37:41;9.2;;;4.4;;
51491;SDS011;37569;50.548;8.778;2023-07-31T20:42:42;7.8;;;4.7;;
51491;SDS011;37569;50.548;8.778;2023-07-31T20:47:42;6.9;;;4.4;;
51491;SDS011;37569;50.548;8.778;2023-07-31T20:52:43;8.9;;;4.8;;
51491;SDS011;37569;50.548;8.778;2023-07-31T20:57:44;9;;;4.8;;
51491;SDS011;37569;50.548;8.778;2023-07-31T21:02:45;10.3;;;4.6;;
51491;SDS011;37569;50.548;8.778;2023-07-31T21:07:46;8.1;;;5;;
51491;SDS011;37569;50.548;8.778;2023-07-31T21:12:46;10.2;;;5.3;;
51491;SDS011;37569;50.548;8.778;2023-07-31T21:17:47;9.6;;;4.6;;
51491;SDS011;37569;50.548;8.778;2023-07-31T21:22:48;7.6;;;4.8;;
51491;SDS011;37569;50.548;8.778;2023-07-31T21:27:49;8.6;;;5.4;;
51491;SDS011;37569;50.548;8.778;2023-07-31T21:32:50;8.4;;;4.9;;
51491;SDS011;37569;50.548;8.778;2023-07-31T21:37:51;7.7;;;5.5;;
51491;SDS011;37569;50.548;8.778;2023-07-31T21:42:51;6.9;;;4.9;;
51491;SDS011;37569;50.548;8.778;2023-07-31T21:47:52;9.1;;;5.4;;
51491;SDS011;37569;50.548;8.778;2023-07-31T21:52:53;8.6;;;4.9;;
51491;SDS011;37569;50.548;8.778;2023-07-31T21:57:53;10.1;;;5.2;;
51491;SDS011;37569;50.548;8.778;2023-07-31T22:02:54;10.7;;;5.6;;
51491;SDS011;37569;50.548;8.778;2023-07-31T22:07:55;10.2;;;5.6;;
51491;SDS011;37569;50.548;8.778;2023-07-31T22:12:56;11;;;5.5;;
51491;SDS011;37569;50.548;8.778;2023-07-31T22:17:56;10.2;;;5.8;;
51491;SDS011;37569;50.548;8.778;2023-07-31T22:22:57;9.6;;;5.6;;
51491;SDS011;37569;50.548;8.778;2023-07-31T22:27:58;9.1;;;5.1;;
51491;SDS011;37569;50.548;8.778;2023-07-31T22:32:59;9.5;;;5.1;;
51491;SDS011;37569;50.548;8.778;2023-07-31T22:37:59;9;;;5.3;;
51491;SDS011;37569;50.548;8.778;2023-07-31T22:43:00;10.1;;;5.4;;
51491;SDS011;37569;50.548;8.778;2023-07-31T22:48:01;9.1;;;5.9;;
51491;SDS011;37569;50.548;8.778;2023-07-31T22:53:02;10.3;;;5.6;;
51491;SDS011;37569;50.548;8.778;2023-07-31T22:58:03;8.9;;;5.7;;
51491;SDS011;37569;50.548;8.778;2023-07-31T23:03:03;10.9;;;5.9;;
51491;SDS011;37569;50.548;8.778;2023-07-31T23:08:04;8.7;;;5.7;;
51491;SDS011;37569;50.548;8.778;2023-07-31T23:13:05;8.5;;;5.5;;
51491;SDS011;37569;50.548;8.778;2023-07-31T23:18:06;8.4;;;5.6;;
51491;SDS011;37569;50.548;8.778;2023-07-31T23:23:07;11.9;;;5.8;;
51491;SDS011;37569;50.548;8.778;2023-07-31T23:28:07;9.1;;;5.7;;
51491;SDS011;37569;50.548;8.778;2023-07-31T23:33:08;10;;;5.4;;
51491;SDS011;37569;50.548;8.778;2023-07-31T23:38:09;8.4;;;4.7;;
51491;SDS011;37569;50.548;8.778;2023-07-31T23:43:09;5.5;;;4.4;;
51491;SDS011;37569;50.548;8.778;2023-07-31T23:48:10;7.3;;;4.1;;
51491;SDS011;37569;50.548;8.778;2023-07-31T23:53:11;5.6;;;3.8;;
51491;SDS011;37569;50.548;8.778;2023-07-31T23:58:12;7.1;;;4.5;;
